Time;durP1;ratioP1;P1;durP2;ratioP2;P2;SDS_P1;SDS_P2;PMS_P1;PMS_P2;Temp;Humidity;BMP_temperature;BMP_pressure;BME280_temperature;BME280_humidity;BME280_pressure;Samples;Min_cycle;Max_cycle;Signal;HPM_P1;HPM_P2
2022/04/20 00:01:22;;;;;;;19.13;4.75;;;;;;;;;;4946051;28;20049;-76
2022/04/20 00:03:48;;;;;;;19.02;5.13;;;;;;;;;;4947268;28;20031;-76
2022/04/20 00:06:14;;;;;;;18.73;4.60;;;;;;;;;;4959869;28;20045;-76
2022/04/20 00:08:40;;;;;;;13.85;4.80;;;;;;;;;;4951896;28;20114;-76
2022/04/20 00:11:05;;;;;;;18.67;4.85;;;;;;;;;;4944508;28;20039;-75
2022/04/20 00:13:31;;;;;;;12.68;5.20;;;;;;;;;;4966455;28;20027;-75
2022/04/20 00:15:57;;;;;;;13.10;5.38;;;;;;;;;;4964960;28;20775;-75
2022/04/20 00:18:23;;;;;;;17.58;5.18;;;;;;;;;;4947430;28;20082;-76
2022/04/20 00:20:49;;;;;;;12.05;5.10;;;;;;;;;;4947607;28;20251;-74
2022/04/20 00:23:14;;;;;;;15.07;5.10;;;;;;;;;;4947252;28;20062;-75
2022/04/20 00:25:40;;;;;;;12.68;5.45;;;;;;;;;;4947208;28;20051;-74
2022/04/20 00:28:05;;;;;;;15.27;4.97;;;;;;;;;;4946369;28;20106;-75
2022/04/20 00:30:31;;;;;;;20.52;6.45;;;;;;;;;;4954094;28;20031;-75
2022/04/20 00:32:56;;;;;;;15.48;4.47;;;;;;;;;;4964923;28;20331;-75
2022/04/20 00:35:22;;;;;;;15.70;5.22;;;;;;;;;;4945188;28;20090;-75
2022/04/20 00:37:48;;;;;;;13.82;4.82;;;;;;;;;;4948020;28;20031;-75
2022/04/20 00:40:14;;;;;;;13.43;4.90;;;;;;;;;;4959368;28;20534;-74
2022/04/20 00:42:40;;;;;;;17.00;4.43;;;;;;;;;;4947805;28;20046;-74
2022/04/20 00:45:11;;;;;;;15.25;4.25;;;;;;;;;;4944745;28;20035;-73
2022/04/20 00:47:38;;;;;;;14.65;4.18;;;;;;;;;;4947109;28;20031;-75
2022/04/20 00:50:06;;;;;;;9.63;3.45;;;;;;;;;;4946569;28;20503;-74
2022/04/20 00:52:31;;;;;;;9.88;3.70;;;;;;;;;;4942890;28;20522;-75
2022/04/20 00:54:57;;;;;;;11.30;3.30;;;;;;;;;;4951814;28;20039;-74
2022/04/20 00:57:23;;;;;;;11.13;2.97;;;;;;;;;;4945218;28;20027;-74
2022/04/20 00:59:50;;;;;;;13.70;3.53;;;;;;;;;;4942891;28;20560;-76
2022/04/20 01:02:16;;;;;;;6.50;2.88;;;;;;;;;;4949292;28;20126;-75
2022/04/20 01:04:41;;;;;;;13.93;3.20;;;;;;;;;;4946524;28;20179;-80
2022/04/20 01:07:14;;;;;;;9.15;2.75;;;;;;;;;;4945144;28;20027;-80
2022/04/20 01:09:41;;;;;;;9.00;3.00;;;;;;;;;;4946811;28;20221;-80
2022/04/20 01:12:08;;;;;;;11.15;2.78;;;;;;;;;;4943790;28;20089;-73
2022/04/20 01:14:35;;;;;;;8.93;2.90;;;;;;;;;;4946365;28;20041;-73
2022/04/20 01:17:01;;;;;;;9.98;2.40;;;;;;;;;;4962895;28;20042;-75
2022/04/20 01:19:39;;;;;;;9.77;2.83;;;;;;;;;;4959289;28;20039;-76
2022/04/20 01:22:08;;;;;;;13.75;3.58;;;;;;;;;;4946672;28;20042;-75
2022/04/20 01:24:35;;;;;;;7.00;2.58;;;;;;;;;;4943687;28;20040;-75
2022/04/20 01:27:02;;;;;;;7.60;2.72;;;;;;;;;;4959725;28;20181;-73
2022/04/20 01:29:28;;;;;;;7.80;2.58;;;;;;;;;;4945152;28;20034;-73
2022/04/20 01:31:54;;;;;;;10.55;3.08;;;;;;;;;;4946763;28;20114;-77
2022/04/20 01:34:20;;;;;;;10.25;3.00;;;;;;;;;;4944569;28;20434;-76
2022/04/20 01:36:45;;;;;;;9.32;3.30;;;;;;;;;;4945655;28;20035;-76
2022/04/20 01:39:11;;;;;;;11.93;3.58;;;;;;;;;;4951554;28;20039;-76
2022/04/20 01:41:37;;;;;;;11.32;3.30;;;;;;;;;;4955907;28;20493;-75
2022/04/20 01:44:02;;;;;;;11.80;2.95;;;;;;;;;;4953993;28;20035;-76
2022/04/20 01:46:28;;;;;;;8.48;2.88;;;;;;;;;;4952608;28;20514;-75
2022/04/20 01:48:53;;;;;;;10.93;3.33;;;;;;;;;;4968652;28;20062;-75
2022/04/20 01:54:03;;;;;;;5.63;2.85;;;;;;;;;;4948008;28;20034;-75
2022/04/20 01:56:28;;;;;;;10.38;3.03;;;;;;;;;;4947457;28;21288;-76
2022/04/20 01:58:54;;;;;;;10.02;4.00;;;;;;;;;;4949349;28;20019;-76
2022/04/20 02:04:03;;;;;;;9.43;3.53;;;;;;;;;;4959107;28;20042;-76
2022/04/20 02:06:29;;;;;;;7.88;3.17;;;;;;;;;;4952730;28;20073;-74
2022/04/20 02:08:55;;;;;;;10.93;3.40;;;;;;;;;;4951041;28;20059;-74
2022/04/20 02:11:20;;;;;;;10.52;2.92;;;;;;;;;;4946996;28;20050;-75
2022/04/20 02:13:46;;;;;;;14.48;3.58;;;;;;;;;;4965165;28;20035;-76
2022/04/20 02:16:11;;;;;;;12.27;3.58;;;;;;;;;;4959930;28;20030;-75
2022/04/20 02:18:37;;;;;;;11.90;3.78;;;;;;;;;;4962825;28;20097;-75
2022/04/20 02:21:02;;;;;;;14.30;3.80;;;;;;;;;;4958650;28;20035;-75
2022/04/20 02:23:28;;;;;;;8.70;2.80;;;;;;;;;;4952007;28;20118;-75
2022/04/20 02:25:54;;;;;;;7.97;2.75;;;;;;;;;;4954397;28;20067;-76
2022/04/20 02:28:19;;;;;;;9.75;2.95;;;;;;;;;;4952674;28;20130;-75
2022/04/20 02:30:45;;;;;;;11.25;3.13;;;;;;;;;;4958027;28;20574;-75
2022/04/20 02:33:11;;;;;;;15.18;3.00;;;;;;;;;;4957628;28;20455;-75
2022/04/20 02:35:37;;;;;;;5.95;2.33;;;;;;;;;;4957544;28;20039;-75
2022/04/20 02:38:03;;;;;;;6.03;2.45;;;;;;;;;;4949249;28;20031;-75
2022/04/20 02:40:30;;;;;;;6.80;3.08;;;;;;;;;;4951456;28;20070;-75
2022/04/20 02:42:56;;;;;;;17.05;3.65;;;;;;;;;;4948759;28;20121;-75
2022/04/20 02:45:22;;;;;;;14.65;2.80;;;;;;;;;;4962578;28;20039;-75
2022/04/20 02:47:48;;;;;;;14.43;3.33;;;;;;;;;;4949522;28;20035;-75
2022/04/20 02:50:13;;;;;;;6.28;2.42;;;;;;;;;;4948467;28;20027;-75
2022/04/20 02:52:39;;;;;;;5.18;1.98;;;;;;;;;;4949846;28;20039;-75
2022/04/20 02:55:04;;;;;;;5.57;2.10;;;;;;;;;;4948836;28;20042;-76
2022/04/20 02:57:30;;;;;;;11.70;2.78;;;;;;;;;;4948065;28;20466;-75
2022/04/20 02:59:55;;;;;;;10.98;2.38;;;;;;;;;;4949039;28;20027;-76
2022/04/20 03:02:21;;;;;;;7.50;2.35;;;;;;;;;;4959442;28;20046;-76
2022/04/20 03:04:47;;;;;;;6.03;1.90;;;;;;;;;;4969699;28;20027;-76
2022/04/20 03:07:12;;;;;;;6.40;2.00;;;;;;;;;;4950590;28;20038;-76
2022/04/20 03:09:38;;;;;;;7.30;1.90;;;;;;;;;;4945224;28;20395;-76
2022/04/20 03:12:04;;;;;;;6.10;2.35;;;;;;;;;;4947344;28;20065;-76
2022/04/20 03:14:29;;;;;;;8.32;2.35;;;;;;;;;;4967759;28;20118;-76
2022/04/20 03:16:55;;;;;;;10.82;1.75;;;;;;;;;;4946401;28;20126;-74
2022/04/20 03:19:20;;;;;;;7.88;1.33;;;;;;;;;;4949353;28;20090;-74
2022/04/20 03:21:46;;;;;;;4.38;1.80;;;;;;;;;;4949006;28;20089;-74
2022/04/20 03:24:12;;;;;;;5.80;1.63;;;;;;;;;;4965683;28;20521;-74
2022/04/20 03:26:39;;;;;;;6.00;2.05;;;;;;;;;;4948520;28;20061;-73
2022/04/20 03:29:04;;;;;;;6.55;2.08;;;;;;;;;;4961128;28;20440;-74
2022/04/20 03:31:30;;;;;;;9.57;1.88;;;;;;;;;;4950164;28;20130;-74
2022/04/20 03:33:56;;;;;;;6.68;1.73;;;;;;;;;;4948138;28;20081;-79
2022/04/20 03:36:22;;;;;;;6.85;1.70;;;;;;;;;;4961255;28;20039;-79
2022/04/20 03:38:47;;;;;;;5.40;1.98;;;;;;;;;;4967828;28;20050;-80
2022/04/20 03:41:13;;;;;;;8.13;2.00;;;;;;;;;;4949145;28;20058;-80
2022/04/20 03:43:38;;;;;;;9.32;1.77;;;;;;;;;;4952152;28;20121;-79
2022/04/20 03:46:05;;;;;;;5.22;2.13;;;;;;;;;;4969534;28;20054;-79
2022/04/20 03:48:31;;;;;;;6.13;1.92;;;;;;;;;;4974042;28;20387;-79
2022/04/20 03:50:56;;;;;;;3.63;1.67;;;;;;;;;;4963922;28;20033;-80
2022/04/20 03:53:22;;;;;;;11.07;2.58;;;;;;;;;;4970305;28;20039;-81
2022/04/20 03:55:47;;;;;;;7.35;2.17;;;;;;;;;;4966841;28;20026;-80
2022/04/20 03:58:13;;;;;;;4.55;1.70;;;;;;;;;;4951640;28;20057;-79
2022/04/20 04:00:38;;;;;;;4.72;2.30;;;;;;;;;;4968142;28;20483;-80
2022/04/20 04:03:04;;;;;;;5.60;1.70;;;;;;;;;;4974296;28;20049;-74
2022/04/20 04:05:29;;;;;;;7.45;2.63;;;;;;;;;;4953827;28;20104;-74
2022/04/20 04:07:55;;;;;;;6.28;2.35;;;;;;;;;;4967999;28;20034;-76
2022/04/20 04:10:20;;;;;;;13.45;2.63;;;;;;;;;;4968516;28;20031;-75
2022/04/20 04:12:46;;;;;;;6.90;2.22;;;;;;;;;;4950103;28;20162;-76
2022/04/20 04:15:11;;;;;;;5.20;2.10;;;;;;;;;;4962387;28;21337;-76
2022/04/20 04:17:37;;;;;;;8.98;2.22;;;;;;;;;;4967990;28;20039;-74
2022/04/20 04:20:04;;;;;;;6.53;1.77;;;;;;;;;;4955236;28;20045;-76
2022/04/20 04:22:30;;;;;;;4.45;1.20;;;;;;;;;;4966650;28;20030;-75
2022/04/20 04:24:57;;;;;;;5.40;1.88;;;;;;;;;;4954099;28;20045;-75
2022/04/20 04:27:22;;;;;;;8.38;2.28;;;;;;;;;;4954156;28;20085;-74
2022/04/20 04:29:48;;;;;;;5.03;2.05;;;;;;;;;;4966335;28;20027;-76
2022/04/20 04:32:14;;;;;;;6.22;1.90;;;;;;;;;;4968008;28;20045;-74
2022/04/20 04:34:39;;;;;;;12.63;2.08;;;;;;;;;;4968645;28;20068;-73
2022/04/20 04:37:06;;;;;;;7.05;1.58;;;;;;;;;;4968129;28;20035;-74
2022/04/20 04:39:32;;;;;;;5.20;1.40;;;;;;;;;;4948534;28;20081;-74
2022/04/20 04:42:00;;;;;;;8.43;1.80;;;;;;;;;;4931576;29;20126;-76
2022/04/20 04:44:26;;;;;;;5.38;1.40;;;;;;;;;;4940304;28;20127;-75
2022/04/20 04:49:36;;;;;;;4.22;1.83;;;;;;;;;;4941676;28;20514;-75
2022/04/20 04:52:02;;;;;;;4.47;1.80;;;;;;;;;;4937999;28;20032;-74
2022/04/20 04:54:28;;;;;;;7.75;2.65;;;;;;;;;;4949001;28;20039;-73
2022/04/20 04:56:53;;;;;;;5.82;1.92;;;;;;;;;;4928067;29;20039;-74
2022/04/20 04:59:19;;;;;;;4.53;2.15;;;;;;;;;;4929317;29;20126;-75
2022/04/20 05:01:45;;;;;;;6.18;2.50;;;;;;;;;;4949927;28;20055;-75
2022/04/20 05:04:13;;;;;;;7.50;1.95;;;;;;;;;;4941973;28;20107;-79
2022/04/20 05:06:39;;;;;;;6.70;2.80;;;;;;;;;;4923654;29;20578;-79
2022/04/20 05:09:04;;;;;;;6.50;2.10;;;;;;;;;;4943864;28;20115;-79
2022/04/20 05:11:30;;;;;;;6.93;2.20;;;;;;;;;;4940733;28;20036;-80
2022/04/20 05:13:56;;;;;;;7.45;2.20;;;;;;;;;;4928706;29;20032;-79
2022/04/20 05:16:22;;;;;;;4.07;2.20;;;;;;;;;;4925025;29;20039;-80
2022/04/20 05:18:47;;;;;;;7.18;2.20;;;;;;;;;;4924332;29;20047;-81
2022/04/20 05:21:13;;;;;;;7.97;1.75;;;;;;;;;;4927602;29;20118;-79
2022/04/20 05:23:38;;;;;;;5.80;1.98;;;;;;;;;;4929178;29;20039;-81
2022/04/20 05:26:04;;;;;;;10.32;3.10;;;;;;;;;;4926585;29;20635;-79
2022/04/20 05:28:30;;;;;;;6.47;2.10;;;;;;;;;;4926557;29;20135;-80
2022/04/20 05:30:55;;;;;;;6.85;2.17;;;;;;;;;;4927894;29;20044;-79
2022/04/20 05:33:21;;;;;;;8.13;2.28;;;;;;;;;;4929899;29;20036;-74
2022/04/20 05:35:47;;;;;;;6.55;2.00;;;;;;;;;;4927904;29;20053;-74
2022/04/20 05:43:41;;;;;;;7.45;2.22;;;;;;;;;;4964724;28;20131;-74
2022/04/20 05:46:06;;;;;;;4.45;2.17;;;;;;;;;;4952672;28;20058;-75
2022/04/20 05:48:33;;;;;;;4.20;2.08;;;;;;;;;;4950497;28;20031;-75
2022/04/20 05:50:58;;;;;;;7.40;2.28;;;;;;;;;;4967894;28;20075;-75
2022/04/20 05:53:24;;;;;;;6.20;2.38;;;;;;;;;;4947753;28;20077;-75
2022/04/20 05:55:49;;;;;;;5.75;2.28;;;;;;;;;;4962593;28;20038;-75
2022/04/20 05:58:15;;;;;;;14.90;2.78;;;;;;;;;;4949217;28;20094;-76
2022/04/20 06:00:40;;;;;;;9.98;3.30;;;;;;;;;;4968196;28;20043;-75
2022/04/20 06:03:07;;;;;;;11.82;5.10;;;;;;;;;;4951690;28;20403;-76
2022/04/20 06:05:32;;;;;;;7.93;3.35;;;;;;;;;;4951372;28;20023;-75
2022/04/20 06:07:58;;;;;;;10.60;3.80;;;;;;;;;;4949020;28;20170;-75
2022/04/20 06:10:23;;;;;;;11.18;3.97;;;;;;;;;;4950049;28;20035;-75
2022/04/20 06:12:49;;;;;;;11.57;3.50;;;;;;;;;;4968670;28;20118;-75
2022/04/20 06:15:15;;;;;;;11.05;3.90;;;;;;;;;;4950379;28;20038;-75
2022/04/20 06:17:41;;;;;;;9.15;4.40;;;;;;;;;;4967744;28;20510;-75
2022/04/20 06:20:10;;;;;;;8.82;3.90;;;;;;;;;;4950514;28;20046;-75
2022/04/20 06:22:36;;;;;;;18.20;5.80;;;;;;;;;;4975570;28;20035;-76
2022/04/20 06:25:02;;;;;;;7.72;4.78;;;;;;;;;;4964765;28;20141;-75
2022/04/20 06:27:31;;;;;;;10.07;4.68;;;;;;;;;;4962485;28;20103;-75
2022/04/20 06:29:57;;;;;;;13.15;5.40;;;;;;;;;;4960305;28;20061;-75
2022/04/20 06:32:27;;;;;;;12.70;4.32;;;;;;;;;;4961059;28;20043;-74
2022/04/20 06:34:54;;;;;;;14.77;4.82;;;;;;;;;;4955820;28;20037;-79
2022/04/20 06:37:22;;;;;;;8.52;3.70;;;;;;;;;;4952322;28;20035;-80
2022/04/20 06:39:49;;;;;;;7.65;3.60;;;;;;;;;;4962240;28;20097;-79
2022/04/20 06:42:15;;;;;;;17.23;4.22;;;;;;;;;;4956560;28;20026;-79
2022/04/20 06:44:40;;;;;;;11.10;3.75;;;;;;;;;;4960583;28;20486;-79
2022/04/20 06:47:06;;;;;;;7.63;3.28;;;;;;;;;;4971976;28;20033;-79
2022/04/20 06:49:32;;;;;;;10.43;3.85;;;;;;;;;;4971124;28;20093;-79
2022/04/20 07:00:10;;;;;;;12.55;3.20;;;;;;;;;;4965228;28;20049;-79
2022/04/20 07:02:36;;;;;;;14.80;4.30;;;;;;;;;;4957541;28;20030;-78
2022/04/20 07:05:01;;;;;;;13.70;4.90;;;;;;;;;;4968215;28;20030;-78
2022/04/20 07:07:27;;;;;;;11.13;4.05;;;;;;;;;;4959049;28;20109;-78
2022/04/20 07:09:53;;;;;;;11.23;3.92;;;;;;;;;;4974856;28;20069;-78
2022/04/20 07:12:19;;;;;;;13.25;4.60;;;;;;;;;;4970818;28;20047;-78
2022/04/20 07:14:44;;;;;;;7.90;3.65;;;;;;;;;;4973569;28;20501;-79
2022/04/20 07:17:10;;;;;;;19.17;5.35;;;;;;;;;;4970889;28;20065;-79
2022/04/20 07:19:35;;;;;;;14.15;5.40;;;;;;;;;;4970071;28;20031;-79
2022/04/20 07:22:01;;;;;;;11.32;5.35;;;;;;;;;;4959885;28;20468;-80
2022/04/20 07:24:27;;;;;;;19.05;5.53;;;;;;;;;;4977033;28;20058;-80
2022/04/20 07:26:52;;;;;;;15.32;6.18;;;;;;;;;;4978952;28;20473;-80
2022/04/20 07:29:18;;;;;;;12.40;6.93;;;;;;;;;;4976272;28;20510;-79
2022/04/20 07:31:43;;;;;;;18.17;7.35;;;;;;;;;;4974947;28;20057;-80
2022/04/20 07:34:09;;;;;;;19.00;6.13;;;;;;;;;;4970950;28;20037;-79
2022/04/20 07:36:34;;;;;;;16.48;5.75;;;;;;;;;;4962481;28;20034;-80
2022/04/20 07:39:00;;;;;;;10.45;5.30;;;;;;;;;;4970864;28;20083;-79
2022/04/20 07:41:38;;;;;;;17.58;5.75;;;;;;;;;;4970379;28;20050;-86
2022/04/20 07:44:04;;;;;;;15.32;4.80;;;;;;;;;;4976180;28;20612;-84
2022/04/20 07:46:29;;;;;;;22.08;5.65;;;;;;;;;;4968479;28;20043;-85
2022/04/20 07:48:55;;;;;;;14.25;5.15;;;;;;;;;;4970416;28;20042;-81
2022/04/20 07:51:21;;;;;;;14.35;4.10;;;;;;;;;;4971193;28;20042;-80
2022/04/20 07:53:46;;;;;;;13.45;4.00;;;;;;;;;;4959797;28;20030;-79
2022/04/20 07:56:12;;;;;;;16.73;4.00;;;;;;;;;;4966555;28;20049;-75
2022/04/20 07:58:37;;;;;;;14.85;3.53;;;;;;;;;;4965933;28;20117;-74
2022/04/20 08:01:03;;;;;;;18.15;3.72;;;;;;;;;;4979826;28;20029;-74
2022/04/20 08:03:28;;;;;;;14.60;3.25;;;;;;;;;;4970144;28;20767;-74
2022/04/20 08:05:56;;;;;;;12.07;3.20;;;;;;;;;;4969353;28;22033;-74
2022/04/20 08:08:23;;;;;;;14.30;2.88;;;;;;;;;;4957175;28;20026;-75
2022/04/20 08:10:49;;;;;;;14.55;3.17;;;;;;;;;;4958354;28;20137;-75
2022/04/20 08:15:59;;;;;;;17.58;3.10;;;;;;;;;;4967187;28;20037;-73
2022/04/20 08:18:26;;;;;;;13.05;2.70;;;;;;;;;;4974079;28;20414;-74
2022/04/20 08:20:51;;;;;;;15.35;2.70;;;;;;;;;;4957680;28;20053;-74
2022/04/20 08:23:17;;;;;;;12.23;2.78;;;;;;;;;;4978088;28;20031;-74
2022/04/20 08:25:43;;;;;;;20.60;2.92;;;;;;;;;;4973100;28;20038;-74
2022/04/20 08:28:10;;;;;;;24.63;2.72;;;;;;;;;;4971621;28;20031;-73
2022/04/20 08:30:36;;;;;;;7.45;2.80;;;;;;;;;;4975384;28;20514;-73
2022/04/20 08:33:06;;;;;;;13.88;2.60;;;;;;;;;;4976648;28;20114;-80
2022/04/20 08:35:32;;;;;;;10.27;3.10;;;;;;;;;;4961683;28;20034;-79
2022/04/20 08:37:57;;;;;;;14.13;2.92;;;;;;;;;;4979631;28;20078;-79
2022/04/20 08:40:24;;;;;;;18.23;2.97;;;;;;;;;;4985089;28;20050;-78
2022/04/20 08:42:50;;;;;;;13.68;2.47;;;;;;;;;;4963997;28;20137;-78
2022/04/20 08:45:17;;;;;;;13.38;2.58;;;;;;;;;;4960552;28;20121;-79
2022/04/20 08:47:44;;;;;;;6.47;1.77;;;;;;;;;;4953951;28;20633;-78
2022/04/20 08:50:10;;;;;;;8.90;1.80;;;;;;;;;;4957875;28;20109;-78
2022/04/20 08:52:39;;;;;;;5.97;2.10;;;;;;;;;;4960253;28;20069;-77
2022/04/20 08:55:08;;;;;;;17.35;1.98;;;;;;;;;;4969284;28;20109;-78
2022/04/20 08:57:35;;;;;;;8.52;1.80;;;;;;;;;;4963042;28;20062;-79
2022/04/20 09:00:01;;;;;;;9.82;2.05;;;;;;;;;;4964131;28;20042;-79
2022/04/20 09:02:28;;;;;;;13.18;2.10;;;;;;;;;;4970253;28;20034;-80
2022/04/20 09:04:55;;;;;;;5.20;1.42;;;;;;;;;;4968648;28;20408;-79
2022/04/20 09:07:20;;;;;;;5.28;0.95;;;;;;;;;;4980354;28;20038;-78
2022/04/20 09:09:46;;;;;;;10.50;1.60;;;;;;;;;;4961450;28;20567;-78
2022/04/20 09:12:16;;;;;;;6.57;1.88;;;;;;;;;;4971901;28;20370;-80
2022/04/20 09:14:43;;;;;;;8.13;1.30;;;;;;;;;;4975724;28;20497;-80
2022/04/20 09:17:13;;;;;;;7.53;1.33;;;;;;;;;;4973221;28;20042;-80
2022/04/20 09:19:40;;;;;;;7.38;1.30;;;;;;;;;;4973801;28;20061;-78
2022/04/20 09:22:23;;;;;;;6.28;1.73;;;;;;;;;;4964667;28;20034;-78
2022/04/20 09:25:14;;;;;;;7.88;1.40;;;;;;;;;;4975153;28;20501;-78
2022/04/20 09:27:42;;;;;;;3.97;1.30;;;;;;;;;;4959133;28;20118;-77
2022/04/20 09:30:16;;;;;;;6.95;1.40;;;;;;;;;;4971917;28;20034;-77
2022/04/20 09:32:42;;;;;;;13.07;1.75;;;;;;;;;;4979906;28;20050;-77
2022/04/20 09:35:10;;;;;;;7.68;1.13;;;;;;;;;;4973427;28;20066;-78
2022/04/20 09:37:36;;;;;;;10.88;1.63;;;;;;;;;;4972534;28;20093;-78
2022/04/20 09:40:11;;;;;;;8.27;1.75;;;;;;;;;;4970703;28;20051;-79
2022/04/20 09:42:37;;;;;;;8.88;1.40;;;;;;;;;;4972628;28;20029;-78
2022/04/20 09:45:06;;;;;;;12.85;2.10;;;;;;;;;;4964938;28;20046;-80
2022/04/20 09:50:27;;;;;;;11.82;1.40;;;;;;;;;;4979655;28;20090;-78
2022/04/20 09:53:02;;;;;;;4.05;1.38;;;;;;;;;;4955090;28;20421;-77
2022/04/20 09:55:32;;;;;;;8.32;1.48;;;;;;;;;;4968725;28;20492;-79
2022/04/20 09:58:18;;;;;;;11.50;1.33;;;;;;;;;;4968877;28;20490;-78
2022/04/20 10:00:53;;;;;;;6.60;1.23;;;;;;;;;;4972917;28;20058;-79
2022/04/20 10:03:39;;;;;;;9.00;1.33;;;;;;;;;;4973601;28;20533;-78
2022/04/20 10:06:05;;;;;;;3.75;0.88;;;;;;;;;;4969573;28;20046;-78
2022/04/20 10:08:31;;;;;;;5.95;1.20;;;;;;;;;;4979477;28;20033;-79
2022/04/20 10:10:57;;;;;;;10.15;1.50;;;;;;;;;;4975831;28;20022;-79
2022/04/20 10:13:26;;;;;;;6.72;1.77;;;;;;;;;;4966623;28;20042;-79
2022/04/20 10:16:05;;;;;;;19.83;2.00;;;;;;;;;;4983013;28;20062;-79
2022/04/20 10:18:34;;;;;;;18.13;1.50;;;;;;;;;;4975406;28;20141;-79
2022/04/20 10:21:01;;;;;;;6.85;1.23;;;;;;;;;;4971587;28;20042;-79
2022/04/20 10:23:30;;;;;;;9.80;1.25;;;;;;;;;;4963623;28;20174;-79
2022/04/20 10:26:01;;;;;;;7.90;1.67;;;;;;;;;;4973495;28;20421;-79
2022/04/20 10:28:27;;;;;;;3.53;1.40;;;;;;;;;;4970249;28;20491;-79
2022/04/20 10:30:58;;;;;;;8.05;1.45;;;;;;;;;;4974099;28;20022;-78
2022/04/20 10:33:25;;;;;;;6.20;1.20;;;;;;;;;;4956521;28;20034;-79
2022/04/20 10:36:01;;;;;;;7.50;1.60;;;;;;;;;;4957412;28;20049;-79
2022/04/20 10:38:29;;;;;;;16.05;1.55;;;;;;;;;;4970439;28;20178;-79
2022/04/20 10:41:13;;;;;;;5.40;0.98;;;;;;;;;;4946876;28;20048;-78
2022/04/20 10:43:42;;;;;;;4.80;0.90;;;;;;;;;;4939914;29;20036;-78
2022/04/20 10:46:16;;;;;;;8.48;1.35;;;;;;;;;;4948911;28;20024;-79
2022/04/20 10:48:42;;;;;;;12.80;1.27;;;;;;;;;;4933621;29;20514;-79
2022/04/20 10:51:16;;;;;;;5.68;1.23;;;;;;;;;;4927514;29;20039;-79
2022/04/20 10:53:50;;;;;;;5.05;0.90;;;;;;;;;;4934027;29;20028;-78
2022/04/20 10:56:20;;;;;;;9.68;1.23;;;;;;;;;;4938751;29;20066;-79
2022/04/20 10:59:04;;;;;;;4.60;0.80;;;;;;;;;;4933373;28;20039;-79
2022/04/20 11:01:29;;;;;;;5.35;1.05;;;;;;;;;;4932552;29;20499;-78
2022/04/20 11:04:06;;;;;;;6.38;0.88;;;;;;;;;;4939097;29;20051;-79
2022/04/20 11:07:12;;;;;;;13.65;1.40;;;;;;;;;;4931740;29;20111;-78
2022/04/20 11:09:46;;;;;;;4.93;1.02;;;;;;;;;;4941128;29;20027;-79
2022/04/20 11:21:02;;;;;;;10.35;1.00;;;;;;;;;;4931813;29;20050;-79
2022/04/20 11:24:01;;;;;;;7.68;1.10;;;;;;;;;;4958917;28;20509;-79
2022/04/20 11:26:31;;;;;;;4.53;0.80;;;;;;;;;;4933000;29;20098;-78
2022/04/20 11:29:14;;;;;;;4.97;1.17;;;;;;;;;;4936962;29;20499;-78
2022/04/20 11:31:42;;;;;;;8.50;1.25;;;;;;;;;;4932708;29;20051;-79
2022/04/20 11:34:09;;;;;;;9.32;0.68;;;;;;;;;;4930259;29;20040;-78
2022/04/20 11:36:40;;;;;;;2.35;0.22;;;;;;;;;;4936510;29;20118;-79
2022/04/20 11:39:06;;;;;;;10.52;0.80;;;;;;;;;;4955030;28;20578;-77
2022/04/20 11:41:34;;;;;;;3.15;0.60;;;;;;;;;;4955162;28;20174;-78
2022/04/20 11:44:01;;;;;;;13.07;0.88;;;;;;;;;;4970750;28;20031;-79
2022/04/20 11:46:27;;;;;;;3.08;0.32;;;;;;;;;;4974978;28;20031;-79
2022/04/20 11:48:57;;;;;;;5.05;0.73;;;;;;;;;;4950518;28;20074;-79
2022/04/20 11:51:28;;;;;;;2.50;0.52;;;;;;;;;;4964279;28;20089;-79
2022/04/20 11:53:55;;;;;;;4.68;2.50;;;;;;;;;;4946422;28;20590;-79
2022/04/20 11:56:40;;;;;;;3.50;0.82;;;;;;;;;;4953130;28;20091;-79
2022/04/20 11:59:08;;;;;;;1.52;0.32;;;;;;;;;;4957872;28;20077;-78
2022/04/20 12:01:36;;;;;;;4.25;0.43;;;;;;;;;;4950481;28;20035;-79
2022/04/20 12:04:28;;;;;;;8.07;0.65;;;;;;;;;;4946517;28;20030;-79
2022/04/20 12:06:59;;;;;;;4.10;0.70;;;;;;;;;;4966592;28;20638;-79
2022/04/20 12:09:31;;;;;;;2.92;0.30;;;;;;;;;;4948226;28;20044;-78
2022/04/20 12:11:58;;;;;;;1.27;0.30;;;;;;;;;;4949196;28;20027;-79
2022/04/20 12:14:32;;;;;;;4.22;0.88;;;;;;;;;;4950583;28;20114;-78
2022/04/20 12:17:00;;;;;;;1.27;0.28;;;;;;;;;;4949286;28;20051;-78
2022/04/20 12:19:27;;;;;;;3.17;0.68;;;;;;;;;;4947832;28;20039;-78
2022/04/20 12:21:53;;;;;;;4.53;0.68;;;;;;;;;;4952583;28;20007;-80
2022/04/20 12:24:22;;;;;;;6.05;0.50;;;;;;;;;;4969189;28;20036;-79
2022/04/20 12:26:50;;;;;;;4.93;0.85;;;;;;;;;;4949630;28;20031;-77
2022/04/20 12:29:20;;;;;;;3.72;0.60;;;;;;;;;;4949194;28;20036;-78
2022/04/20 12:31:49;;;;;;;4.80;0.50;;;;;;;;;;4955278;28;20065;-77
2022/04/20 12:34:15;;;;;;;2.08;0.25;;;;;;;;;;4924989;28;20090;-76
2022/04/20 12:36:52;;;;;;;5.57;1.00;;;;;;;;;;4953098;28;20039;-73
2022/04/20 12:39:38;;;;;;;4.43;0.55;;;;;;;;;;4933936;28;20051;-73
2022/04/20 12:42:14;;;;;;;3.45;0.75;;;;;;;;;;4949829;28;20490;-76
2022/04/20 12:44:51;;;;;;;4.15;0.70;;;;;;;;;;4956594;28;20426;-74
2022/04/20 12:47:16;;;;;;;5.85;0.63;;;;;;;;;;4942736;28;20067;-73
2022/04/20 12:49:48;;;;;;;3.55;0.70;;;;;;;;;;4962784;28;20027;-73
2022/04/20 12:52:19;;;;;;;7.55;0.77;;;;;;;;;;4944574;28;20038;-74
2022/04/20 12:54:58;;;;;;;4.95;0.82;;;;;;;;;;4948081;28;20027;-72
2022/04/20 13:03:16;;;;;;;4.20;0.52;;;;;;;;;;4942109;28;20046;-81
2022/04/20 13:05:43;;;;;;;2.58;0.43;;;;;;;;;;4938665;28;20061;-76
2022/04/20 13:08:10;;;;;;;4.20;0.65;;;;;;;;;;4937932;28;20037;-76
2022/04/20 13:10:37;;;;;;;6.63;0.80;;;;;;;;;;4945351;28;20059;-75
2022/04/20 13:13:04;;;;;;;7.22;0.60;;;;;;;;;;4944251;28;20082;-80
2022/04/20 13:15:30;;;;;;;5.10;0.65;;;;;;;;;;4949009;28;20077;-80
2022/04/20 13:17:59;;;;;;;8.57;0.90;;;;;;;;;;4942889;28;20086;-79
2022/04/20 18:18:06;;;;;;;10.60;2.75;;;;;;;;;;5097503;27;20400;-60
2022/04/20 18:20:32;;;;;;;11.57;3.33;;;;;;;;;;5083192;28;20032;-56
2022/04/20 18:22:57;;;;;;;11.68;4.00;;;;;;;;;;5093321;28;20419;-57
2022/04/20 18:25:23;;;;;;;13.30;3.53;;;;;;;;;;5086166;28;20386;-57
2022/04/20 18:27:48;;;;;;;13.18;3.90;;;;;;;;;;5093802;28;20062;-57
2022/04/20 18:30:14;;;;;;;13.85;4.40;;;;;;;;;;5092365;28;20519;-57
2022/04/20 18:32:42;;;;;;;10.43;3.78;;;;;;;;;;5090281;28;20032;-57
2022/04/20 18:35:09;;;;;;;12.27;3.65;;;;;;;;;;5098611;28;20106;-56
2022/04/20 18:37:34;;;;;;;13.27;3.00;;;;;;;;;;5092600;28;20115;-57
2022/04/20 18:40:01;;;;;;;14.57;2.70;;;;;;;;;;5089751;28;20769;-57
2022/04/20 18:42:27;;;;;;;6.10;2.55;;;;;;;;;;5092373;28;20680;-57
2022/04/20 18:44:58;;;;;;;11.25;2.42;;;;;;;;;;5089859;28;20092;-57
2022/04/20 18:47:29;;;;;;;8.02;2.05;;;;;;;;;;5089982;28;20071;-57
2022/04/20 18:49:55;;;;;;;7.13;2.40;;;;;;;;;;5091475;28;20043;-56
2022/04/20 18:52:22;;;;;;;9.55;2.53;;;;;;;;;;5090068;28;20036;-56
2022/04/20 18:57:46;;;;;;;9.68;2.15;;;;;;;;;;5091276;28;20078;-57
2022/04/20 19:00:19;;;;;;;6.88;2.40;;;;;;;;;;5091486;28;20031;-56
2022/04/20 19:02:45;;;;;;;12.50;3.05;;;;;;;;;;5096159;28;20032;-56
2022/04/20 19:05:12;;;;;;;7.50;2.42;;;;;;;;;;5086558;28;20024;-56
2022/04/20 19:07:38;;;;;;;12.23;2.65;;;;;;;;;;5085934;28;20024;-56
2022/04/20 19:10:05;;;;;;;9.65;2.75;;;;;;;;;;5088925;28;20673;-56
2022/04/20 19:12:34;;;;;;;6.15;2.78;;;;;;;;;;5088767;28;20035;-57
2022/04/20 19:14:59;;;;;;;11.95;2.58;;;;;;;;;;5097794;28;20264;-57
2022/04/20 19:17:25;;;;;;;6.90;2.42;;;;;;;;;;5087489;28;20574;-57
2022/04/20 19:19:54;;;;;;;10.75;2.83;;;;;;;;;;5089476;28;20773;-57
2022/04/20 19:22:20;;;;;;;9.65;3.03;;;;;;;;;;5085811;28;20030;-56
2022/04/20 19:24:47;;;;;;;9.85;2.80;;;;;;;;;;5087148;28;20032;-56
2022/04/20 19:27:12;;;;;;;5.15;2.90;;;;;;;;;;5089671;28;20074;-56
2022/04/20 19:29:38;;;;;;;12.32;3.28;;;;;;;;;;5073604;28;20562;-57
2022/04/20 19:32:04;;;;;;;7.60;3.67;;;;;;;;;;5074438;28;20078;-56
2022/04/20 19:34:29;;;;;;;10.80;3.58;;;;;;;;;;5076817;28;20036;-56
2022/04/20 19:36:56;;;;;;;10.45;3.58;;;;;;;;;;5081290;28;20033;-56
2022/04/20 19:39:21;;;;;;;10.70;3.70;;;;;;;;;;5074616;28;20028;-56
2022/04/20 19:41:51;;;;;;;18.55;4.28;;;;;;;;;;5080847;28;20019;-56
2022/04/20 19:44:18;;;;;;;13.80;3.80;;;;;;;;;;5074867;28;20032;-56
2022/04/20 19:46:44;;;;;;;16.73;4.82;;;;;;;;;;5074526;28;20024;-56
2022/04/20 19:49:09;;;;;;;13.82;4.90;;;;;;;;;;5067730;28;20419;-57
2022/04/20 19:51:38;;;;;;;13.60;5.20;;;;;;;;;;5071739;28;20441;-57
2022/04/20 19:54:07;;;;;;;13.50;6.10;;;;;;;;;;5074518;28;20063;-60
2022/04/20 19:56:33;;;;;;;14.50;5.97;;;;;;;;;;5072091;28;20028;-61
2022/04/20 19:58:59;;;;;;;15.55;6.15;;;;;;;;;;5076073;28;20086;-60
2022/04/20 20:01:25;;;;;;;15.30;5.78;;;;;;;;;;5076285;28;20623;-57
2022/04/20 20:03:51;;;;;;;12.07;5.90;;;;;;;;;;5069968;28;20804;-63
2022/04/20 20:06:20;;;;;;;12.50;5.05;;;;;;;;;;5073089;28;20056;-59
2022/04/20 20:08:48;;;;;;;13.23;5.05;;;;;;;;;;5069462;28;20521;-62
2022/04/20 20:11:15;;;;;;;9.52;4.55;;;;;;;;;;5067268;28;20028;-57
2022/04/20 20:13:41;;;;;;;10.63;4.88;;;;;;;;;;5068314;28;20055;-56
2022/04/20 20:16:08;;;;;;;13.00;5.20;;;;;;;;;;5068177;28;20123;-57
2022/04/20 20:18:34;;;;;;;15.63;5.47;;;;;;;;;;5068297;28;20035;-56
2022/04/20 20:21:01;;;;;;;14.23;5.22;;;;;;;;;;5072562;28;20020;-57
2022/04/20 20:31:39;;;;;;;16.52;6.80;;;;;;;;;;5072120;28;20093;-56